This is the latest recevied weather packets stored in our database for station/object DM1HF-13. If no packets are shown the sender has not sent any weather packets the latest 10 day(s).
| Time | Temp. | Humidity | Pressure | Rain* | Wind** | Luminosity | Snow |
|---|---|---|---|---|---|---|---|
| 1777842316 | 18.33° C | 49% | 1013.2 hPa | 0 mm | - | 0 W/m² | - |
| 1777842017 | 17.78° C | 50% | 1013.2 hPa | 0 mm | - | 0 W/m² | - |
| 1777841417 | 18.33° C | 49% | 1013.1 hPa | 0 mm | - | 0 W/m² | - |
| 1777840216 | 18.33° C | 47% | 1012.9 hPa | 0 mm | - | 0 W/m² | - |
| 1777839916 | 18.33° C | 47% | 1012.9 hPa | 0 mm | - | 0 W/m² | - |
| 1777839616 | 18.89° C | 47% | 1012.9 hPa | 0 mm | - | 0 W/m² | - |
| 1777839317 | 18.89° C | 46% | 1012.8 hPa | 0 mm | - | 0 W/m² | - |
| 1777837817 | 19.44° C | 47% | 1012.9 hPa | 0 mm | - | 0 W/m² | - |
| 1777837521 | 19.44° C | 47% | 1012.9 hPa | 0 mm | - | 0 W/m² | - |
| 1777835117 | 20.56° C | 41% | 1012.8 hPa | 0 mm | - | 0 W/m² | - |
| 1777834517 | 20.56° C | 42% | 1012.7 hPa | 0 mm | - | 0 W/m² | - |
| 1777834217 | 21.11° C | 42% | 1012.7 hPa | 0 mm | - | 0 W/m² | - |
| 1777833016 | 21.67° C | 42% | 1012.5 hPa | 0 mm | - | 1 W/m² | - |
| 1777831217 | 22.78° C | 40% | 1012.4 hPa | 0 mm | - | 10 W/m² | - |
| 1777828517 | 24.44° C | 36% | 1012.1 hPa | 0 mm | - | 35 W/m² | - |
| 1777824917 | 27.78° C | 30% | 1011.8 hPa | 0 mm | - | 53 W/m² | - |
| 1777823417 | 28.33° C | 24% | 1011.9 hPa | 0 mm | - | 103 W/m² | - |
| 1777821016 | 28.33° C | 24% | 1012.1 hPa | 0 mm | - | 87 W/m² | - |
| 1777810816 | 29.44° C | 26% | 1014.2 hPa | 0 mm | - | 393 W/m² | - |
| 1777810517 | 28.89° C | 25% | 1014.2 hPa | 0 mm | - | 544 W/m² | - |
| 1777806016 | 27.22° C | 27% | 1015 hPa | 0 mm | - | 388 W/m² | - |
| 1777803016 | 27.22° C | 30% | 1015.4 hPa | 0 mm | - | 620 W/m² | - |
| 1777802716 | 27.22° C | 30% | 1015.4 hPa | 0 mm | - | 428 W/m² | - |
| 1777802416 | 26.67° C | 32% | 1015.5 hPa | 0 mm | - | 299 W/m² | - |
| 1777802116 | 26.67° C | 34% | 1015.5 hPa | 0 mm | - | 524 W/m² | - |
* Rain latest hour (hover to see other rain measurements)
** Current wind speed in m/s (hover to see current wind gust speed)